Map

Track Data

SID SEASON NUMBER BASIN SUBBASIN NAME ISO_TIME NATURE LAT LON WMO_WIND WMO_PRES WMO_AGENCY TRACK_TYPE DIST2LAND LANDFALL IFLAG USA_AGENCY USA_ATCF_ID USA_LAT USA_LON USA_RECORD USA_STATUS USA_WIND USA_PRES USA_SSHS USA_R34_NE USA_R34_SE USA_R34_SW USA_R34_NW USA_R50_NE USA_R50_SE USA_R50_SW USA_R50_NW USA_R64_NE USA_R64_SE USA_R64_SW USA_R64_NW USA_POCI USA_ROCI USA_RMW USA_EYE TOKYO_LAT TOKYO_LON TOKYO_GRADE TOKYO_WIND TOKYO_PRES TOKYO_R50_DIR TOKYO_R50_LONG TOKYO_R50_SHORT TOKYO_R30_DIR TOKYO_R30_LONG TOKYO_R30_SHORT TOKYO_LAND CMA_LAT CMA_LON CMA_CAT CMA_WIND CMA_PRES HKO_LAT HKO_LON HKO_CAT HKO_WIND HKO_PRES NEWDELHI_LAT NEWDELHI_LON NEWDELHI_GRADE NEWDELHI_WIND NEWDELHI_PRES NEWDELHI_CI NEWDELHI_DP NEWDELHI_POCI REUNION_LAT REUNION_LON REUNION_TYPE REUNION_WIND REUNION_PRES REUNION_TNUM REUNION_CI REUNION_RMW REUNION_R34_NE REUNION_R34_SE REUNION_R34_SW REUNION_R34_NW REUNION_R50_NE REUNION_R50_SE REUNION_R50_SW REUNION_R50_NW REUNION_R64_NE REUNION_R64_SE REUNION_R64_SW REUNION_R64_NW BOM_LAT BOM_LON BOM_TYPE BOM_WIND BOM_PRES BOM_TNUM BOM_CI BOM_RMW BOM_R34_NE BOM_R34_SE BOM_R34_SW BOM_R34_NW BOM_R50_NE BOM_R50_SE BOM_R50_SW BOM_R50_NW BOM_R64_NE BOM_R64_SE BOM_R64_SW BOM_R64_NW BOM_ROCI BOM_POCI BOM_EYE BOM_POS_METHOD BOM_PRES_METHOD NADI_LAT NADI_LON NADI_CAT NADI_WIND NADI_PRES WELLINGTON_LAT WELLINGTON_LON WELLINGTON_WIND WELLINGTON_PRES DS824_LAT DS824_LON DS824_STAGE DS824_WIND DS824_PRES TD9636_LAT TD9636_LON TD9636_STAGE TD9636_WIND TD9636_PRES TD9635_LAT TD9635_LON TD9635_WIND TD9635_PRES TD9635_ROCI NEUMANN_LAT NEUMANN_LON NEUMANN_CLASS NEUMANN_WIND NEUMANN_PRES MLC_LAT MLC_LON MLC_CLASS MLC_WIND MLC_PRES USA_GUST BOM_GUST BOM_GUST_PER REUNION_GUST REUNION_GUST_PER USA_SEAHGT USA_SEARAD_NE USA_SEARAD_SE USA_SEARAD_SW USA_SEARAD_NW STORM_SPEED STORM_DIR
1904081S13060 1904 5 SI MM NOT_NAMED 1904-03-21 06:00:00 NR -13.1000 59.8000 reunion spur-split 814 811 _____O________ -1 -13.1000 59.8000 99 9.90000 1 226
1904081S13060 1904 5 SI MM NOT_NAMED 1904-03-21 09:00:00 NR -13.1478 59.7448 spur-split 811 801 _____P________ -1 -13.1478 59.7448 99 2 228
1904081S13060 1904 5 SI MM NOT_NAMED 1904-03-21 12:00:00 NR -13.1995 59.6854 spur-split 801 787 _____P________ -1 -13.1995 59.6854 99 2 229
1904081S13060 1904 5 SI MM NOT_NAMED 1904-03-21 15:00:00 NR -13.2586 59.6174 spur-split 787 784 _____P________ -1 -13.2586 59.6174 99 2 228
1904081S13060 1904 5 SI MM NOT_NAMED 1904-03-21 18:00:00 NR -13.3292 59.5367 spur-split 784 771 _____P________ -1 -13.3292 59.5367 99 2 228
1904081S13060 1904 5 SI MM NOT_NAMED 1904-03-21 21:00:00 NR -13.4148 59.4389 spur-split 771 757 _____P________ -1 -13.4148 59.4389 99 3 228
1904081S13060 1904 5 SI MM NOT_NAMED 1904-03-22 00:00:00 NR -13.5193 59.3197 spur-split 757 744 _____P________ -1 -13.5193 59.3197 99 3 228
1904081S13060 1904 5 SI MM NOT_NAMED 1904-03-22 03:00:00 NR -13.6465 59.1749 spur-split 744 718 _____P________ -1 -13.6465 59.1749 99 4 228
1904081S13060 1904 5 SI MM NOT_NAMED 1904-03-22 06:00:00 NR -13.8000 59.0000 reunion spur-split 718 692 _____O________ -1 -13.8000 59.0000 99 9.90000 5 228
1904081S13060 1904 5 SI MM NOT_NAMED 1904-03-22 09:00:00 NR -13.9828 58.7927 spur-split 692 667 _____P________ -1 -13.9828 58.7927 99 6 227
1904081S13060 1904 5 SI MM NOT_NAMED 1904-03-22 12:00:00 NR -14.1944 58.5583 spur-split 667 641 _____P________ -1 -14.1944 58.5583 99 7 226
1904081S13060 1904 5 SI MM NOT_NAMED 1904-03-22 15:00:00 NR -14.4335 58.3043 spur-split 641 605 _____P________ -1 -14.4335 58.3043 99 7 225
1904081S13060 1904 5 SI MM NOT_NAMED 1904-03-22 18:00:00 NR -14.6989 58.0381 spur-split 605 570 _____P________ -1 -14.6989 58.0381 99 8 223
1904081S13060 1904 5 SI MM NOT_NAMED 1904-03-22 21:00:00 NR -14.9894 57.7671 spur-split 570 537 _____P________ -1 -14.9894 57.7671 99 8 221
1904081S13060 1904 5 SI MM NOT_NAMED 1904-03-23 00:00:00 NR -15.3038 57.4987 spur-split 537 503 _____P________ -1 -15.3038 57.4987 99 8 218
1904081S13060 1904 5 SI MM NOT_NAMED 1904-03-23 03:00:00 NR -15.6411 57.2405 spur-split 504 461 _____P________ -1 -15.6411 57.2405 99 9 215
1904081S13060 1904 5 SI MM NOT_NAMED 1904-03-23 06:00:00 NR -16.0000 57.0000 reunion spur-split 461 431 _____O________ -1 -16.0000 57.0000 99 9.90000 9 211
1904081S13060 1904 5 SI MM NOT_NAMED 1904-03-23 09:00:00 NR -16.3653 56.7842 spur-split 420 392 _____P________ -1 -16.3653 56.7842 99 9 208
1904081S13060 1904 5 SI MM NOT_NAMED 1904-03-23 12:00:00 NR -16.7555 56.5807 spur-split 381 355 _____P________ -1 -16.7555 56.5807 99 9 205
1904081S13060 1904 5 SI MM NOT_NAMED 1904-03-23 15:00:00 NR -17.1667 56.3909 spur-split 344 311 _____P________ -1 -17.1667 56.3909 99 9 202
1904081S13060 1904 5 SI MM NOT_NAMED 1904-03-23 18:00:00 NR -17.5950 56.2162 spur-split 311 277 _____P________ -1 -17.5950 56.2162 99 9 200
1904081S13060 1904 5 SI MM NOT_NAMED 1904-03-23 21:00:00 NR -18.0364 56.0582 spur-split 277 245 _____P________ -1 -18.0364 56.0582 99 9 198
1904081S13060 1904 5 SI MM NOT_NAMED 1904-03-24 00:00:00 NR -18.4870 55.9185 spur-split 245 223 _____P________ -1 -18.4870 55.9185 99 9 195
1904081S13060 1904 5 SI MM NOT_NAMED 1904-03-24 03:00:00 NR -18.9428 55.7985 spur-split 223 178 _____P________ -1 -18.9428 55.7985 99 9 193
1904081S13060 1904 5 SI MM NOT_NAMED 1904-03-24 06:00:00 NR -19.4000 55.7000 reunion spur-split 178 134 _____O________ -1 -19.4000 55.7000 99 9.90000 9 191
1904081S13060 1904 5 SI MM NOT_NAMED 1904-03-24 09:00:00 NR -19.8366 55.6063 spur-split 134 78 _____P________ -1 -19.8366 55.6063 99 9 190
1904081S13060 1904 5 SI MM NOT_NAMED 1904-03-24 12:00:00 NR -20.2771 55.5340 spur-split 78 33 _____P________ -1 -20.2771 55.5340 99 9 188
1904081S13060 1904 5 SI MM NOT_NAMED 1904-03-24 15:00:00 NR -20.7214 55.4823 spur-split 33 0 _____P________ -1 -20.7214 55.4823 99 9 185
1904081S13060 1904 5 SI MM NOT_NAMED 1904-03-24 18:00:00 NR -21.1696 55.4501 spur-split 0 0 _____P________ -1 -21.1696 55.4501 99 9 183
1904081S13060 1904 5 SI MM NOT_NAMED 1904-03-24 21:00:00 NR -21.6215 55.4367 spur-split 30 30 _____P________ -1 -21.6215 55.4367 99 9 0
1904081S13060 1904 5 SI MM NOT_NAMED 1904-03-25 00:00:00 NR -22.0772 55.4411 spur-split 80 80 _____P________ -1 -22.0772 55.4411 99 9 0
1904081S13060 1904 5 SI MM NOT_NAMED 1904-03-25 03:00:00 NR -22.5368 55.4625 spur-split 123 123 _____P________ -1 -22.5368 55.4625 99 9 176
1904081S13060 1904 5 SI MM NOT_NAMED 1904-03-25 06:00:00 NR -23.0000 55.5000 reunion spur-split 179 179 _____O________ -1 -23.0000 55.5000 99 9.90000 10 175
1904081S13060 1904 5 SI MM NOT_NAMED 1904-03-25 09:00:00 NR -23.5249 55.5534 spur-split 234 234 _____P________ -1 -23.5249 55.5534 99 11 173
1904081S13060 1904 5 SI MM NOT_NAMED 1904-03-25 12:00:00 NR -24.0613 55.6271 spur-split 301 301 _____P________ -1 -24.0613 55.6271 99 11 172
1904081S13060 1904 5 SI MM NOT_NAMED 1904-03-25 15:00:00 NR -24.5965 55.7162 spur-split 357 357 _____P________ -1 -24.5965 55.7162 99 11 171
1904081S13060 1904 5 SI MM NOT_NAMED 1904-03-25 18:00:00 NR -25.1174 55.8151 spur-split 414 414 _____P________ -1 -25.1174 55.8151 99 10 170
1904081S13060 1904 5 SI MM NOT_NAMED 1904-03-25 21:00:00 NR -25.6112 55.9186 spur-split 470 470 _____P________ -1 -25.6112 55.9186 99 10 169
1904081S13060 1904 5 SI MM NOT_NAMED 1904-03-26 00:00:00 NR -26.0648 56.0211 spur-split 526 526 _____P________ -1 -26.0648 56.0211 99 9 168
1904081S13060 1904 5 SI MM NOT_NAMED 1904-03-26 03:00:00 NR -26.4654 56.1168 spur-split 572 572 _____P________ -1 -26.4654 56.1168 99 8 168
1904081S13060 1904 5 SI MM NOT_NAMED 1904-03-26 06:00:00 NR -26.8000 56.2000 reunion spur-split 606 606 _____O________ -1 -26.8000 56.2000 99 9.90000 6 167
1904081S13060 1904 5 SI MM NOT_NAMED 1904-03-26 09:00:00 NR -27.0596 56.2661 spur-split 640 640 _____P________ -1 -27.0596 56.2661 99 5 167
1904081S13060 1904 5 SI MM NOT_NAMED 1904-03-26 12:00:00 NR -27.2504 56.3159 spur-split 663 663 _____P________ -1 -27.2504 56.3159 99 3 167
1904081S13060 1904 5 SI MM NOT_NAMED 1904-03-26 15:00:00 NR -27.3821 56.3517 spur-split 675 675 _____P________ -1 -27.3821 56.3517 99 2 167
1904081S13060 1904 5 SI MM NOT_NAMED 1904-03-26 18:00:00 NR -27.4646 56.3756 spur-split 686 686 _____P________ -1 -27.4646 56.3756 99 1 163
1904081S13060 1904 5 SI MM NOT_NAMED 1904-03-26 21:00:00 NR -27.5079 56.3900 spur-split 686 686 _____P________ -1 -27.5079 56.3900 99 1 0
1904081S13060 1904 5 SI MM NOT_NAMED 1904-03-27 00:00:00 NR -27.5216 56.3973 spur-split 686 686 _____P________ -1 -27.5216 56.3973 99 0 0
1904081S13060 1904 5 SI MM NOT_NAMED 1904-03-27 03:00:00 NR -27.5157 56.3998 spur-split 686 686 _____P________ -1 -27.5157 56.3998 99 0 0
1904081S13060 1904 5 SI MM NOT_NAMED 1904-03-27 06:00:00 NR -27.5000 56.4000 reunion spur-split 686 _____O________ -1 -27.5000 56.4000 99 9.90000 0 0

About IBTrACS Database

This database is a web-friendly format of International Best Track Archive for Climate Stewardship (IBTrACS), a global best track data archive curated by NOAA dating back to 1842.

Updated: 2021-11-26